createdAt,value
2023-02-11T00:00:41.091Z,29.30
2023-02-11T00:02:48.029Z,29.80
2023-02-11T00:04:50.953Z,29.40
2023-02-11T00:06:57.688Z,26.60
2023-02-11T00:09:01.334Z,30.20
2023-02-11T00:11:07.062Z,28.50
2023-02-11T00:13:09.696Z,32.30
2023-02-11T00:15:12.398Z,30.20
2023-02-11T00:17:15.588Z,30.50
2023-02-11T00:19:18.321Z,29.20
2023-02-11T00:21:25.880Z,30.90
2023-02-11T00:23:28.587Z,28.60
2023-02-11T00:25:34.195Z,31.10
2023-02-11T00:27:37.751Z,29.20
2023-02-11T00:29:40.898Z,30.50
2023-02-11T00:31:47.917Z,29.40
2023-02-11T00:33:50.766Z,31.90
2023-02-11T00:35:54.948Z,29.70
2023-02-11T00:37:58.998Z,31.30
2023-02-11T00:40:03.831Z,31.60
2023-02-11T00:42:10.967Z,33.10
2023-02-11T00:44:13.763Z,31.30
2023-02-11T00:46:19.818Z,30.30
2023-02-11T00:48:22.640Z,30.10
2023-02-11T00:50:28.124Z,29.90
2023-02-11T00:52:32.437Z,32.70
2023-02-11T00:54:35.208Z,29.90
2023-02-11T00:56:44.073Z,30.10
2023-02-11T00:58:50.142Z,30.80
2023-02-11T01:00:53.692Z,30.20
2023-02-11T01:02:56.573Z,30.70
2023-02-11T01:05:00.135Z,33.20
2023-02-11T01:07:03.034Z,30.90
2023-02-11T01:09:06.262Z,30.90
2023-02-11T01:11:15.722Z,32.40
2023-02-11T01:13:20.838Z,30.70
2023-02-11T01:15:23.776Z,30.00
2023-02-11T01:17:29.205Z,30.80
2023-02-11T01:19:31.938Z,30.50
2023-02-11T01:21:34.888Z,31.60
2023-02-11T01:23:37.804Z,29.70
2023-02-11T01:25:46.780Z,34.30
2023-02-11T01:27:49.496Z,31.60
2023-02-11T01:29:55.804Z,32.00
2023-02-11T01:32:00.111Z,34.10
2023-02-11T01:34:06.044Z,32.60
2023-02-11T01:36:10.645Z,32.30
2023-02-11T01:38:21.550Z,31.90
2023-02-11T01:40:24.844Z,31.30
2023-02-11T01:42:27.599Z,29.60
2023-02-11T01:44:32.347Z,33.60
2023-02-11T01:46:37.529Z,31.80
2023-02-11T01:48:43.669Z,34.70
2023-02-11T01:50:50.346Z,32.60
2023-02-11T01:52:53.685Z,32.90
2023-02-11T01:55:00.032Z,34.40
2023-02-11T01:57:05.962Z,35.10
2023-02-11T01:59:23.537Z,33.60
2023-02-11T02:01:28.528Z,31.80
2023-02-11T02:03:40.082Z,31.40
2023-02-11T02:05:52.645Z,33.70
2023-02-11T02:08:10.981Z,31.10
2023-02-11T02:10:22.186Z,33.70
2023-02-11T02:12:25.031Z,32.80
2023-02-11T02:14:28.554Z,32.50
2023-02-11T02:16:35.748Z,33.80
2023-02-11T02:18:50.323Z,35.70
2023-02-11T02:21:35.142Z,33.90
2023-02-11T02:24:13.869Z,35.20
2023-02-11T02:26:53.771Z,33.80
2023-02-11T02:29:42.334Z,34.30
2023-02-11T02:32:01.584Z,35.40
2023-02-11T02:34:09.078Z,35.60
2023-02-11T02:36:18.927Z,35.90
2023-02-11T02:38:27.964Z,36.20
2023-02-11T02:40:34.556Z,33.60
2023-02-11T02:42:39.536Z,33.90
2023-02-11T02:44:48.653Z,36.30
2023-02-11T02:46:53.048Z,34.60
2023-02-11T02:48:59.709Z,33.30
2023-02-11T02:51:10.745Z,35.20
2023-02-11T02:53:26.569Z,33.80
2023-02-11T02:55:46.281Z,36.30
2023-02-11T02:58:26.435Z,37.40
2023-02-11T03:00:37.665Z,35.10
2023-02-11T03:02:48.693Z,34.60
2023-02-11T03:05:01.849Z,33.10
2023-02-11T03:07:16.004Z,32.90
2023-02-11T03:09:24.814Z,36.30
2023-02-11T03:11:40.563Z,35.60
2023-02-11T03:13:48.359Z,38.40
2023-02-11T03:15:55.056Z,34.50
2023-02-11T03:18:01.300Z,34.20
2023-02-11T03:20:06.260Z,35.80
2023-02-11T03:22:19.522Z,35.10
2023-02-11T03:24:30.274Z,33.50
2023-02-11T03:26:39.856Z,34.10
2023-02-11T03:28:48.890Z,34.90
2023-02-11T03:30:59.066Z,35.90
2023-02-11T03:33:11.796Z,36.00
2023-02-11T03:35:20.320Z,37.20
2023-02-11T03:37:28.198Z,35.00
2023-02-11T03:39:39.394Z,33.90
2023-02-11T03:41:48.444Z,36.70
2023-02-11T03:43:57.686Z,36.20
2023-02-11T03:46:01.777Z,36.20
2023-02-11T03:48:08.238Z,35.30
2023-02-11T03:50:12.439Z,35.80
2023-02-11T03:52:17.539Z,36.50
2023-02-11T03:54:26.811Z,35.90
2023-02-11T03:56:35.939Z,36.90
2023-02-11T03:58:38.789Z,35.30
2023-02-11T04:00:43.544Z,36.70
2023-02-11T04:02:49.338Z,35.50
2023-02-11T04:04:55.222Z,36.10
2023-02-11T04:06:57.871Z,36.30
2023-02-11T04:09:00.918Z,36.40
2023-02-11T04:11:03.571Z,33.80
2023-02-11T04:13:06.384Z,37.40
2023-02-11T04:15:09.810Z,36.90
2023-02-11T04:17:13.803Z,37.90
2023-02-11T04:19:16.444Z,36.60
2023-02-11T04:21:19.342Z,37.00
2023-02-11T04:23:22.030Z,36.80
2023-02-11T04:25:24.753Z,36.50
2023-02-11T04:27:27.511Z,38.80
2023-02-11T04:29:30.939Z,37.00
2023-02-11T04:31:33.859Z,37.80
2023-02-11T04:33:39.427Z,33.00
2023-02-11T04:35:45.247Z,37.50
2023-02-11T04:37:50.229Z,35.90
2023-02-11T04:39:52.846Z,38.60
2023-02-11T04:41:55.742Z,36.30
2023-02-11T04:43:58.447Z,38.80
2023-02-11T04:46:01.187Z,36.80
2023-02-11T04:48:05.558Z,36.70
2023-02-11T04:50:11.355Z,35.30
2023-02-11T04:52:13.949Z,35.30
2023-02-11T04:54:17.275Z,36.30
2023-02-11T04:56:25.677Z,36.80
2023-02-11T04:58:29.444Z,39.40
2023-02-11T05:00:32.111Z,37.70
2023-02-11T05:02:38.158Z,36.50
2023-02-11T05:04:40.861Z,35.60
2023-02-11T05:06:43.831Z,36.00
2023-02-11T05:08:49.837Z,39.30
2023-02-11T05:10:52.555Z,35.40
2023-02-11T05:12:56.467Z,35.30
2023-02-11T05:14:59.127Z,35.20
2023-02-11T05:17:01.926Z,36.30
2023-02-11T05:19:05.243Z,36.90
2023-02-11T05:21:10.037Z,35.90
2023-02-11T05:23:12.859Z,33.20
2023-02-11T05:25:21.751Z,34.00
2023-02-11T05:27:24.877Z,35.40
2023-02-11T05:29:28.082Z,37.20
2023-02-11T05:31:30.799Z,32.80
2023-02-11T05:33:33.744Z,32.90
2023-02-11T05:35:36.839Z,36.40
2023-02-11T05:37:39.982Z,32.50
2023-02-11T05:39:43.209Z,32.60
2023-02-11T05:41:48.972Z,33.80
2023-02-11T05:43:54.232Z,34.40
2023-02-11T05:46:00.164Z,31.90
2023-02-11T05:48:04.195Z,31.80
2023-02-11T05:50:10.702Z,32.90
2023-02-11T05:52:13.487Z,31.60
2023-02-11T05:54:18.948Z,29.50
2023-02-11T05:56:24.810Z,31.20
2023-02-11T05:58:31.732Z,30.00
2023-02-11T06:00:35.129Z,27.00
2023-02-11T06:02:45.185Z,31.00
2023-02-11T06:04:54.072Z,31.40
2023-02-11T06:06:56.834Z,29.70
2023-02-11T06:09:01.258Z,31.00
2023-02-11T06:11:04.629Z,30.60
2023-02-11T06:13:07.514Z,29.30
2023-02-11T06:15:12.131Z,29.60
2023-02-11T06:17:18.117Z,31.40
2023-02-11T06:19:20.904Z,32.80
2023-02-11T06:21:26.481Z,28.80
2023-02-11T06:23:34.700Z,29.90
2023-02-11T06:25:37.910Z,28.80
2023-02-11T06:27:40.831Z,30.10
2023-02-11T06:29:45.230Z,29.50
2023-02-11T06:31:48.054Z,29.90
2023-02-11T06:33:50.852Z,30.50
2023-02-11T06:35:53.548Z,30.70
2023-02-11T06:37:59.222Z,32.80
2023-02-11T06:40:02.456Z,30.20
2023-02-11T06:42:08.015Z,29.50
2023-02-11T06:44:13.355Z,31.00
2023-02-11T06:46:20.572Z,28.90
2023-02-11T06:48:23.602Z,29.90
2023-02-11T06:50:26.473Z,27.40
2023-02-11T06:52:32.219Z,26.60
2023-02-11T06:54:36.698Z,30.00
2023-02-11T06:56:43.934Z,30.10
2023-02-11T06:58:53.798Z,30.60
2023-02-11T07:00:56.772Z,31.20
2023-02-11T07:02:59.652Z,28.60
2023-02-11T07:05:05.306Z,28.80
2023-02-11T07:07:09.215Z,28.00
2023-02-11T07:09:15.881Z,28.90
2023-02-11T07:11:23.016Z,32.70
2023-02-11T07:13:27.168Z,29.90
2023-02-11T07:15:32.596Z,27.10
2023-02-11T07:17:36.137Z,29.40
2023-02-11T07:19:38.927Z,27.30
2023-02-11T07:21:47.426Z,30.70
2023-02-11T07:23:50.467Z,29.20
2023-02-11T07:25:53.082Z,27.50
2023-02-11T07:27:56.409Z,28.20
2023-02-11T07:29:59.243Z,27.30
2023-02-11T07:32:03.215Z,26.40
2023-02-11T07:34:05.992Z,26.60
2023-02-11T07:36:11.942Z,25.40
2023-02-11T07:38:14.708Z,26.90
2023-02-11T07:40:17.884Z,28.00
2023-02-11T07:42:20.619Z,25.50
2023-02-11T07:44:26.360Z,29.60
2023-02-11T07:46:29.226Z,26.50
2023-02-11T07:48:32.288Z,25.60
2023-02-11T07:50:34.957Z,26.70
2023-02-11T07:52:37.956Z,33.20
2023-02-11T07:54:41.160Z,26.60
2023-02-11T07:56:43.926Z,26.40
2023-02-11T07:58:46.998Z,26.50
2023-02-11T08:00:49.783Z,31.50
2023-02-11T08:02:53.792Z,27.10
2023-02-11T08:04:56.462Z,27.50
2023-02-11T08:06:59.392Z,29.40
2023-02-11T08:09:07.361Z,26.10
2023-02-11T08:11:12.774Z,27.90
2023-02-11T08:13:18.508Z,28.20
2023-02-11T08:15:21.241Z,25.30
2023-02-11T08:17:26.866Z,27.40
2023-02-11T08:19:29.637Z,25.90
2023-02-11T08:21:33.544Z,24.40
2023-02-11T08:23:40.514Z,25.50
2023-02-11T08:25:44.724Z,25.40
2023-02-11T08:27:47.989Z,25.30
2023-02-11T08:29:51.087Z,25.90
2023-02-11T08:31:54.008Z,25.60
2023-02-11T08:33:56.696Z,23.40
2023-02-11T08:35:59.892Z,25.30
2023-02-11T08:38:03.895Z,26.40
2023-02-11T08:40:11.457Z,25.80
2023-02-11T08:42:14.430Z,26.00
2023-02-11T08:44:17.302Z,24.20
2023-02-11T08:46:20.919Z,24.90
2023-02-11T08:48:23.806Z,24.30
2023-02-11T08:50:28.831Z,24.80
2023-02-11T08:52:31.936Z,26.30
2023-02-11T08:54:34.671Z,23.10
2023-02-11T08:56:38.150Z,28.60
2023-02-11T08:58:41.294Z,24.60
2023-02-11T09:00:44.121Z,26.10
2023-02-11T09:02:49.875Z,27.50
2023-02-11T09:04:52.564Z,24.70
2023-02-11T09:06:58.058Z,25.40
2023-02-11T09:09:01.216Z,25.30
2023-02-11T09:11:07.553Z,25.20
2023-02-11T09:13:10.722Z,26.40
2023-02-11T09:15:16.736Z,23.20
2023-02-11T09:17:22.617Z,26.30
2023-02-11T09:19:25.314Z,27.30
2023-02-11T09:21:28.789Z,26.50
2023-02-11T09:23:31.587Z,25.80
2023-02-11T09:25:34.284Z,29.30
2023-02-11T09:27:37.082Z,25.60
2023-02-11T09:29:39.781Z,28.20
2023-02-11T09:31:42.582Z,26.50
2023-02-11T09:33:48.450Z,25.90
2023-02-11T09:35:54.528Z,27.20
2023-02-11T09:38:01.328Z,27.10
2023-02-11T09:40:05.220Z,27.50
2023-02-11T09:42:44.984Z,25.70
2023-02-11T09:44:50.803Z,27.00
2023-02-11T09:46:57.961Z,23.50
2023-02-11T09:49:01.511Z,24.00
2023-02-11T09:51:05.600Z,25.90
2023-02-11T09:53:17.166Z,23.70
2023-02-11T09:55:24.540Z,27.50
2023-02-11T09:57:31.739Z,25.10
2023-02-11T09:59:39.257Z,25.50
2023-02-11T10:01:50.410Z,24.00
2023-02-11T10:04:01.105Z,21.10
2023-02-11T10:06:15.260Z,24.00
2023-02-11T10:08:26.281Z,23.50
2023-02-11T10:10:47.876Z,23.60
2023-02-11T10:13:11.473Z,24.20
2023-02-11T10:15:21.545Z,22.40
2023-02-11T10:17:36.036Z,22.50
2023-02-11T10:19:52.738Z,21.60
2023-02-11T10:22:06.231Z,21.00
2023-02-11T10:24:13.509Z,20.90
2023-02-11T10:26:18.092Z,19.60
2023-02-11T10:28:23.035Z,20.60
2023-02-11T10:30:31.556Z,22.50
2023-02-11T10:32:42.852Z,21.70
2023-02-11T10:34:45.990Z,24.30
2023-02-11T10:36:54.909Z,21.70
2023-02-11T10:38:59.377Z,21.10
2023-02-11T10:41:02.147Z,21.10
2023-02-11T10:43:11.022Z,20.70
2023-02-11T10:45:31.689Z,21.20
2023-02-11T10:47:37.725Z,21.30
2023-02-11T10:49:47.155Z,19.50
2023-02-11T10:51:51.090Z,20.70
2023-02-11T10:54:16.998Z,19.70
2023-02-11T10:56:26.808Z,21.90
2023-02-11T10:58:39.756Z,21.30
2023-02-11T11:00:50.479Z,20.30
2023-02-11T11:03:00.483Z,20.50
2023-02-11T11:05:07.080Z,20.70
2023-02-11T11:07:20.950Z,23.10
2023-02-11T11:09:29.069Z,23.90
2023-02-11T11:11:52.347Z,23.20
2023-02-11T11:13:57.108Z,21.20
2023-02-11T11:16:19.761Z,20.30
2023-02-11T11:18:25.298Z,19.80
2023-02-11T11:20:29.841Z,19.80
2023-02-11T11:22:32.862Z,20.10
2023-02-11T11:24:45.560Z,20.40
2023-02-11T11:26:53.178Z,16.80
2023-02-11T11:29:06.040Z,18.50
2023-02-11T11:31:16.916Z,19.10
2023-02-11T11:33:22.397Z,19.60
2023-02-11T11:35:27.384Z,17.50
2023-02-11T11:37:32.931Z,18.90
2023-02-11T11:39:36.121Z,17.70
2023-02-11T11:41:49.899Z,17.80
2023-02-11T11:44:00.257Z,16.40
2023-02-11T11:46:09.227Z,17.00
2023-02-11T11:48:21.919Z,16.50
2023-02-11T11:50:31.463Z,16.70
2023-02-11T11:52:43.121Z,18.70
2023-02-11T11:54:53.756Z,17.00
2023-02-11T11:57:01.063Z,15.70
2023-02-11T11:59:12.119Z,16.10
2023-02-11T12:01:28.047Z,16.40
2023-02-11T12:04:12.752Z,16.00
2023-02-11T12:06:38.701Z,15.40
2023-02-11T12:08:48.856Z,18.30
2023-02-11T12:11:07.863Z,17.50
2023-02-11T12:13:20.992Z,16.00
2023-02-11T12:15:34.653Z,16.70
2023-02-11T12:17:58.341Z,13.80
2023-02-11T12:20:25.070Z,18.60
2023-02-11T12:22:41.269Z,19.10
2023-02-11T12:25:09.088Z,14.90
2023-02-11T12:27:22.235Z,14.70
2023-02-11T12:29:35.523Z,15.50
2023-02-11T12:31:56.634Z,13.80
2023-02-11T12:34:30.541Z,13.70
2023-02-11T12:36:47.457Z,15.60
2023-02-11T12:39:07.258Z,14.60
2023-02-11T12:41:43.765Z,15.90
2023-02-11T12:43:46.504Z,17.90
2023-02-11T12:46:01.580Z,16.00
2023-02-11T12:48:24.105Z,16.90
2023-02-11T12:50:41.956Z,17.40
2023-02-11T12:53:08.410Z,17.20
2023-02-11T12:55:21.821Z,16.40
2023-02-11T12:57:27.494Z,15.80
2023-02-11T12:59:43.772Z,18.40
2023-02-11T13:01:51.488Z,18.90
2023-02-11T13:03:59.473Z,18.90
2023-02-11T13:06:06.698Z,16.60
2023-02-11T13:08:15.322Z,18.40
2023-02-11T13:10:27.843Z,18.20
2023-02-11T13:12:34.612Z,17.10
2023-02-11T13:14:40.565Z,19.20
2023-02-11T13:16:46.310Z,20.10
2023-02-11T13:18:56.236Z,16.40
2023-02-11T13:21:19.883Z,19.30
2023-02-11T13:23:31.638Z,20.20
2023-02-11T13:25:40.409Z,18.30
2023-02-11T13:27:55.386Z,20.60
2023-02-11T13:30:23.070Z,17.70
2023-02-11T13:32:51.748Z,17.40
2023-02-11T13:34:57.135Z,20.60
2023-02-11T13:37:00.381Z,20.20
2023-02-11T13:39:18.622Z,19.30
2023-02-11T13:41:30.367Z,20.80
2023-02-11T13:43:35.823Z,21.90
2023-02-11T13:45:44.508Z,19.10
2023-02-11T13:47:49.327Z,20.10
2023-02-11T13:49:54.375Z,23.60
2023-02-11T13:51:59.562Z,21.30
2023-02-11T13:54:16.854Z,20.70
2023-02-11T13:56:30.395Z,20.40
2023-02-11T13:58:46.703Z,19.90
2023-02-11T14:00:56.327Z,20.50
2023-02-11T14:03:31.058Z,22.20
2023-02-11T14:05:35.482Z,22.20
2023-02-11T14:08:09.753Z,20.70
2023-02-11T14:10:52.152Z,18.80
2023-02-11T14:13:23.295Z,21.90
2023-02-11T14:15:37.855Z,18.70
2023-02-11T14:17:41.690Z,19.90
2023-02-11T14:19:50.148Z,21.40
2023-02-11T14:22:01.993Z,18.60
2023-02-11T14:24:49.845Z,21.10
2023-02-11T14:27:01.993Z,20.30
2023-02-11T14:29:15.482Z,20.70
2023-02-11T14:31:24.553Z,22.40
2023-02-11T14:33:55.466Z,18.70
2023-02-11T14:36:07.908Z,18.20
2023-02-11T14:38:26.571Z,19.70
2023-02-11T14:40:32.581Z,20.80
2023-02-11T14:42:37.523Z,22.40
2023-02-11T14:44:43.417Z,18.90
2023-02-11T14:46:49.315Z,18.00
2023-02-11T14:48:58.044Z,17.20
2023-02-11T14:51:06.290Z,18.50
2023-02-11T14:53:15.666Z,18.80
2023-02-11T14:55:30.256Z,17.40
2023-02-11T14:57:33.463Z,16.80
2023-02-11T14:59:39.027Z,19.00
2023-02-11T15:01:45.066Z,16.90
2023-02-11T15:03:50.375Z,16.00
2023-02-11T15:05:59.413Z,15.50
2023-02-11T15:08:14.825Z,15.80
2023-02-11T15:10:29.941Z,17.20
2023-02-11T15:12:35.122Z,17.90
2023-02-11T15:14:45.387Z,17.10
2023-02-11T15:16:50.113Z,15.50
2023-02-11T15:19:00.677Z,14.90
2023-02-11T15:21:06.094Z,14.30
2023-02-11T15:23:19.556Z,13.70
2023-02-11T15:25:25.640Z,15.40
2023-02-11T15:27:39.745Z,15.80
2023-02-11T15:29:45.290Z,16.00
2023-02-11T15:32:13.729Z,15.50
2023-02-11T15:34:20.773Z,16.20
2023-02-11T15:36:29.344Z,15.00
2023-02-11T15:38:36.179Z,14.00
2023-02-11T15:40:50.949Z,15.80
2023-02-11T15:42:59.490Z,16.30
2023-02-11T15:45:21.530Z,16.30
2023-02-11T15:47:30.572Z,15.10
2023-02-11T15:49:44.048Z,17.00
2023-02-11T15:51:50.231Z,15.80
2023-02-11T15:54:00.947Z,14.80
2023-02-11T15:56:19.508Z,15.90
2023-02-11T15:58:28.204Z,15.80
2023-02-11T16:00:46.329Z,13.40
2023-02-11T16:02:55.474Z,18.40
2023-02-11T16:05:02.894Z,14.90
2023-02-11T16:07:26.959Z,15.70
2023-02-11T16:09:37.536Z,16.00
2023-02-11T16:11:57.826Z,15.20
2023-02-11T16:14:20.388Z,14.50
2023-02-11T16:16:29.309Z,15.10
2023-02-11T16:18:39.234Z,15.80
2023-02-11T16:20:49.305Z,15.10
2023-02-11T16:22:57.470Z,17.10
2023-02-11T16:25:04.838Z,14.50
2023-02-11T16:27:22.593Z,17.90
2023-02-11T16:29:30.628Z,16.40
2023-02-11T16:31:36.883Z,17.80
2023-02-11T16:33:45.652Z,14.90
2023-02-11T16:35:54.456Z,17.20
2023-02-11T16:38:05.715Z,17.00
2023-02-11T16:40:12.543Z,16.90
2023-02-11T16:42:25.125Z,17.40
2023-02-11T16:44:32.620Z,16.60
2023-02-11T16:46:38.805Z,16.80
2023-02-11T16:48:43.068Z,16.10
2023-02-11T16:50:51.522Z,17.80
2023-02-11T16:52:59.238Z,15.60
2023-02-11T16:55:06.208Z,16.50
2023-02-11T16:57:13.251Z,16.80
2023-02-11T16:59:23.453Z,16.70
2023-02-11T17:01:28.228Z,17.10
2023-02-11T17:03:34.039Z,17.60
2023-02-11T17:05:55.028Z,25.90
2023-02-11T17:08:02.254Z,20.10
2023-02-11T17:10:18.185Z,17.90
2023-02-11T17:12:22.595Z,18.70
2023-02-11T17:14:30.141Z,19.20
2023-02-11T17:16:35.328Z,19.60
2023-02-11T17:18:46.006Z,20.40
2023-02-11T17:20:54.666Z,17.00
2023-02-11T17:23:01.375Z,17.30
2023-02-11T17:25:13.504Z,16.60
2023-02-11T17:27:23.265Z,17.90
2023-02-11T17:29:28.593Z,19.40
2023-02-11T17:31:35.825Z,19.50
2023-02-11T17:33:39.793Z,18.80
2023-02-11T17:35:47.527Z,16.20
2023-02-11T17:37:53.471Z,16.80
2023-02-11T17:39:59.759Z,18.10
2023-02-11T17:42:07.698Z,19.20
2023-02-11T17:44:12.618Z,16.80
2023-02-11T17:46:16.787Z,16.70
2023-02-11T17:48:23.569Z,16.30
2023-02-11T17:50:29.245Z,18.60
2023-02-11T17:52:34.392Z,19.50
2023-02-11T17:54:39.342Z,20.40
2023-02-11T17:56:45.822Z,18.00
2023-02-11T17:58:52.618Z,18.80
2023-02-11T18:01:03.387Z,19.40
2023-02-11T18:03:11.245Z,20.30
2023-02-11T18:05:16.242Z,17.50
2023-02-11T18:07:21.253Z,18.30
2023-02-11T18:09:28.810Z,18.30
2023-02-11T18:11:34.736Z,19.20
2023-02-11T18:13:43.324Z,17.60
2023-02-11T18:15:52.617Z,18.60
2023-02-11T18:17:59.586Z,20.50
2023-02-11T18:20:07.616Z,19.00
2023-02-11T18:22:18.063Z,18.90
2023-02-11T18:24:27.429Z,18.70
2023-02-11T18:26:36.670Z,16.80
2023-02-11T18:28:45.314Z,18.20
2023-02-11T18:30:57.857Z,18.60
2023-02-11T18:33:02.769Z,18.10
2023-02-11T18:35:22.901Z,18.80
2023-02-11T18:37:27.291Z,19.10
2023-02-11T18:39:32.178Z,19.80
2023-02-11T18:41:37.868Z,18.90
2023-02-11T18:43:50.164Z,19.30
2023-02-11T18:45:58.265Z,18.70
2023-02-11T18:48:08.694Z,20.70
2023-02-11T18:50:20.599Z,19.30
2023-02-11T18:52:26.347Z,19.80
2023-02-11T18:54:31.856Z,19.50
2023-02-11T18:56:40.474Z,19.00
2023-02-11T18:58:47.203Z,20.00
2023-02-11T19:00:51.611Z,19.40
2023-02-11T19:02:58.087Z,19.00
2023-02-11T19:05:10.378Z,17.70
2023-02-11T19:07:14.908Z,19.50
2023-02-11T19:09:23.541Z,19.00
2023-02-11T19:11:31.315Z,20.70
2023-02-11T19:13:37.630Z,22.20
2023-02-11T19:16:04.548Z,19.80
2023-02-11T19:18:11.567Z,19.60
2023-02-11T19:20:18.211Z,23.40
2023-02-11T19:22:26.159Z,20.60
2023-02-11T19:24:32.909Z,19.90
2023-02-11T19:26:39.651Z,20.10
2023-02-11T19:28:49.704Z,19.90
2023-02-11T19:30:54.723Z,20.00
2023-02-11T19:33:01.414Z,20.40
2023-02-11T19:35:05.653Z,20.00
2023-02-11T19:37:17.676Z,20.20
2023-02-11T19:39:24.009Z,22.20
2023-02-11T19:41:28.472Z,21.30
2023-02-11T19:43:33.651Z,22.20
2023-02-11T19:45:39.938Z,21.80
2023-02-11T19:47:45.698Z,22.10
2023-02-11T19:49:49.714Z,18.60
2023-02-11T19:51:56.143Z,21.10
2023-02-11T19:54:00.818Z,19.10
2023-02-11T19:56:10.215Z,21.00
2023-02-11T19:58:16.780Z,18.70
2023-02-11T20:00:28.754Z,21.90
2023-02-11T20:02:33.710Z,18.80
2023-02-11T20:04:40.242Z,21.20
2023-02-11T20:06:47.606Z,20.20
2023-02-11T20:08:58.179Z,20.20
2023-02-11T20:11:08.721Z,20.20
2023-02-11T20:13:15.038Z,18.70
2023-02-11T20:15:22.983Z,18.60
2023-02-11T20:17:29.012Z,20.80
2023-02-11T20:19:33.924Z,19.70
2023-02-11T20:21:40.465Z,21.40
2023-02-11T20:23:45.906Z,20.80
2023-02-11T20:25:50.397Z,22.00
2023-02-11T20:27:58.635Z,19.50
2023-02-11T20:30:04.281Z,20.30
2023-02-11T20:32:09.780Z,19.80
2023-02-11T20:34:14.488Z,21.60
2023-02-11T20:36:23.482Z,22.20
2023-02-11T20:38:29.388Z,21.50
2023-02-11T20:40:39.527Z,18.50
2023-02-11T20:42:44.957Z,21.80
2023-02-11T20:44:50.093Z,19.80
2023-02-11T20:46:54.989Z,18.10
2023-02-11T20:48:59.228Z,20.20
2023-02-11T20:51:11.746Z,19.70
2023-02-11T20:53:16.754Z,21.90
2023-02-11T20:55:20.877Z,21.20
2023-02-11T20:57:30.050Z,20.80
2023-02-11T20:59:33.499Z,21.10
2023-02-11T21:01:49.220Z,20.60
2023-02-11T21:03:55.250Z,20.90
2023-02-11T21:06:04.978Z,19.90
2023-02-11T21:08:13.731Z,19.00
2023-02-11T21:10:18.646Z,21.10
2023-02-11T21:12:24.834Z,19.60
2023-02-11T21:14:30.553Z,20.30
2023-02-11T21:16:37.593Z,20.10
2023-02-11T21:18:42.142Z,21.40
2023-02-11T21:20:45.448Z,21.00
2023-02-11T21:22:53.391Z,20.60
2023-02-11T21:25:01.183Z,19.80
2023-02-11T21:27:09.400Z,21.00
2023-02-11T21:29:14.788Z,21.40
2023-02-11T21:31:22.392Z,21.50
2023-02-11T21:33:31.092Z,20.70
2023-02-11T21:35:39.388Z,20.30
2023-02-11T21:37:42.823Z,20.80
2023-02-11T21:39:47.617Z,20.70
2023-02-11T21:41:51.745Z,19.60
2023-02-11T21:43:58.549Z,20.10
2023-02-11T21:46:08.980Z,19.80
2023-02-11T21:48:16.661Z,22.30
2023-02-11T21:50:23.992Z,21.50
2023-02-11T21:52:27.507Z,20.30
2023-02-11T21:54:32.108Z,22.20
2023-02-11T21:56:39.924Z,20.40
2023-02-11T21:58:43.852Z,22.60
2023-02-11T22:00:47.072Z,21.00
2023-02-11T22:02:51.652Z,23.50
2023-02-11T22:04:56.664Z,20.80
2023-02-11T22:06:59.703Z,21.60
2023-02-11T22:09:05.325Z,20.50
2023-02-11T22:11:11.541Z,21.80
2023-02-11T22:13:15.249Z,21.50
2023-02-11T22:15:18.264Z,20.50
2023-02-11T22:17:21.229Z,22.10
2023-02-11T22:19:23.965Z,21.60
2023-02-11T22:21:27.580Z,22.30
2023-02-11T22:23:34.047Z,19.90
2023-02-11T22:25:37.704Z,20.50
2023-02-11T22:27:40.428Z,22.20
2023-02-11T22:29:43.592Z,21.00
2023-02-11T22:31:46.359Z,22.00
2023-02-11T22:33:49.840Z,20.10
2023-02-11T22:36:01.921Z,20.50
2023-02-11T22:38:04.713Z,22.90
2023-02-11T22:40:11.499Z,20.80
2023-02-11T22:42:17.166Z,21.00
2023-02-11T22:44:19.923Z,21.60
2023-02-11T22:46:22.720Z,22.30
2023-02-11T22:48:26.071Z,21.60
2023-02-11T22:50:29.037Z,22.50
2023-02-11T22:52:33.782Z,20.00
2023-02-11T22:54:39.511Z,23.30
2023-02-11T22:56:42.477Z,23.40
2023-02-11T22:58:45.165Z,24.00
2023-02-11T23:00:50.656Z,22.00
2023-02-11T23:02:53.447Z,22.70
2023-02-11T23:04:56.191Z,22.00
2023-02-11T23:06:58.967Z,23.30
2023-02-11T23:09:04.818Z,21.30
2023-02-11T23:11:09.767Z,23.60
2023-02-11T23:13:12.717Z,22.10
2023-02-11T23:15:15.668Z,22.60
2023-02-11T23:17:18.490Z,21.20
2023-02-11T23:19:21.123Z,20.90
2023-02-11T23:21:26.810Z,22.50
2023-02-11T23:23:29.494Z,21.60
2023-02-11T23:25:33.230Z,21.60
2023-02-11T23:27:35.972Z,23.80
2023-02-11T23:29:38.653Z,21.80
2023-02-11T23:31:42.998Z,22.90
2023-02-11T23:33:46.054Z,23.60
2023-02-11T23:35:51.728Z,23.40
2023-02-11T23:37:54.389Z,22.70
2023-02-11T23:39:57.178Z,22.50
2023-02-11T23:41:59.912Z,24.40
2023-02-11T23:44:02.571Z,23.20
2023-02-11T23:46:05.840Z,23.10
2023-02-11T23:48:08.681Z,22.60
2023-02-11T23:50:12.331Z,23.00
2023-02-11T23:52:15.409Z,23.10
2023-02-11T23:54:19.640Z,23.30
2023-02-11T23:56:24.399Z,22.70
2023-02-11T23:58:27.126Z,23.30
